createdAt,value
2022-11-05T00:00:54.975Z,98526.28
2022-11-05T00:03:41.202Z,98531.22
2022-11-05T00:06:29.181Z,98529.91
2022-11-05T00:09:34.943Z,98528.56
2022-11-05T00:12:38.796Z,98536.28
2022-11-05T00:15:25.213Z,98536.59
2022-11-05T00:17:52.494Z,98538.34
2022-11-05T00:20:19.621Z,98536.63
2022-11-05T00:23:05.089Z,98539.88
2022-11-05T00:25:32.571Z,98551.97
2022-11-05T00:28:03.485Z,98545.81
2022-11-05T00:30:31.001Z,98548.47
2022-11-05T00:33:03.197Z,98554.03
2022-11-05T00:35:30.521Z,98552.44
2022-11-05T00:37:57.689Z,98563.19
2022-11-05T00:40:24.815Z,98550.97
2022-11-05T00:43:10.915Z,98557.81
2022-11-05T00:45:38.268Z,98555.59
2022-11-05T00:48:24.552Z,98571.13
2022-11-05T00:50:52.049Z,98565.75
2022-11-05T00:53:19.322Z,98573.56
2022-11-05T00:55:47.347Z,98583.97
2022-11-05T00:58:19.215Z,98575.69
2022-11-05T01:01:00.896Z,98586.03
2022-11-05T01:03:36.200Z,98588.28
2022-11-05T01:06:17.614Z,98598.69
2022-11-05T01:08:46.792Z,98600.41
2022-11-05T01:11:35.273Z,98590.31
2022-11-05T01:14:10.154Z,98593.25
2022-11-05T01:16:39.240Z,98597.44
2022-11-05T01:19:10.538Z,98601.38
2022-11-05T01:21:38.478Z,98596.09
2022-11-05T01:24:06.298Z,98596.63
2022-11-05T01:26:33.470Z,98601.38
2022-11-05T01:29:01.116Z,98603.69
2022-11-05T01:31:29.131Z,98608.50
2022-11-05T01:33:56.281Z,98611.50
2022-11-05T01:36:23.399Z,98615.06
2022-11-05T01:38:50.522Z,98613.38
2022-11-05T01:41:18.090Z,98621.09
2022-11-05T01:44:02.015Z,98617.81
2022-11-05T01:46:41.263Z,98619.50
2022-11-05T01:49:38.392Z,98618.94
2022-11-05T01:52:08.287Z,98616.72
2022-11-05T01:54:39.521Z,98620.38
2022-11-05T01:57:12.039Z,98627.47
2022-11-05T01:59:48.807Z,98624.69
2022-11-05T02:02:18.217Z,98633.59
2022-11-05T02:05:06.438Z,98626.06
2022-11-05T02:07:34.787Z,98629.66
2022-11-05T02:10:07.263Z,98630.53
2022-11-05T02:12:39.088Z,98636.44
2022-11-05T02:15:10.405Z,98627.78
2022-11-05T02:18:09.068Z,98622.78
2022-11-05T02:20:54.902Z,98627.66
2022-11-05T02:24:09.130Z,98627.41
2022-11-05T02:27:02.205Z,98635.34
2022-11-05T02:30:06.668Z,98632.31
2022-11-05T02:33:23.372Z,98638.75
2022-11-05T02:36:27.623Z,98630.38
2022-11-05T02:39:34.795Z,98648.94
2022-11-05T02:42:54.184Z,98637.94
2022-11-05T02:46:03.729Z,98641.94
2022-11-05T02:49:01.547Z,98643.13
2022-11-05T02:51:49.453Z,98636.53
2022-11-05T02:54:35.713Z,98646.03
2022-11-05T02:57:08.742Z,98641.25
2022-11-05T02:59:36.519Z,98640.13
2022-11-05T03:02:16.852Z,98638.78
2022-11-05T03:04:44.566Z,98646.63
2022-11-05T03:07:44.086Z,98646.66
2022-11-05T03:10:51.812Z,98642.56
2022-11-05T03:13:53.233Z,98638.22
2022-11-05T03:16:51.151Z,98642.41
2022-11-05T03:19:48.870Z,98650.47
2022-11-05T03:22:42.241Z,98657.88
2022-11-05T03:25:32.335Z,98648.53
2022-11-05T03:28:30.949Z,98654.84
2022-11-05T03:31:01.062Z,98661.31
2022-11-05T03:33:53.373Z,98665.47
2022-11-05T03:36:33.635Z,98664.88
2022-11-05T03:39:13.752Z,98668.44
2022-11-05T03:41:45.163Z,98678.13
2022-11-05T03:44:16.854Z,98681.94
2022-11-05T03:46:57.794Z,98685.50
2022-11-05T03:50:21.723Z,98684.31
2022-11-05T03:53:00.440Z,98685.75
2022-11-05T03:55:44.763Z,98698.06
2022-11-05T03:58:14.549Z,98690.69
2022-11-05T04:00:42.311Z,98692.09
2022-11-05T04:03:12.182Z,98707.38
2022-11-05T04:05:40.784Z,98704.41
2022-11-05T04:08:28.705Z,98706.19
2022-11-05T04:11:16.920Z,98706.84
2022-11-05T04:13:46.441Z,98708.41
2022-11-05T04:16:33.332Z,98712.13
2022-11-05T04:19:01.366Z,98707.63
2022-11-05T04:21:47.667Z,98716.72
2022-11-05T04:24:15.259Z,98716.25
2022-11-05T04:26:47.500Z,98723.88
2022-11-05T04:29:33.733Z,98723.31
2022-11-05T04:32:31.980Z,98722.88
2022-11-05T04:35:56.588Z,98737.47
2022-11-05T04:38:20.204Z,98743.47
2022-11-05T04:40:48.839Z,98744.97
2022-11-05T04:43:20.022Z,98734.16
2022-11-05T04:45:47.708Z,98735.31
2022-11-05T04:48:14.982Z,98745.09
2022-11-05T04:50:42.361Z,98742.44
2022-11-05T04:54:09.232Z,98743.66
2022-11-05T04:56:31.641Z,98743.13
2022-11-05T04:59:02.589Z,98754.38
2022-11-05T05:01:47.873Z,98750.03
2022-11-05T05:04:22.501Z,98754.81
2022-11-05T05:06:49.731Z,98759.22
2022-11-05T05:09:17.100Z,98759.88
2022-11-05T05:11:52.016Z,98754.31
2022-11-05T05:14:23.852Z,98769.09
2022-11-05T05:17:02.203Z,98765.22
2022-11-05T05:19:29.816Z,98764.69
2022-11-05T05:21:56.987Z,98772.09
2022-11-05T05:24:25.003Z,98773.78
2022-11-05T05:26:52.254Z,98782.69
2022-11-05T05:29:19.564Z,98774.88
2022-11-05T05:31:46.784Z,98781.22
2022-11-05T05:34:15.284Z,98770.66
2022-11-05T05:36:46.053Z,98782.97
2022-11-05T05:39:14.249Z,98785.88
2022-11-05T05:41:46.316Z,98779.16
2022-11-05T05:44:17.583Z,98787.09
2022-11-05T05:46:47.306Z,98792.53
2022-11-05T05:49:14.886Z,98794.41
2022-11-05T05:51:44.563Z,98788.97
2022-11-05T05:54:14.854Z,98795.25
2022-11-05T05:56:46.137Z,98797.97
2022-11-05T05:59:13.589Z,98805.13
2022-11-05T06:01:41.351Z,98809.09
2022-11-05T06:04:13.545Z,98808.06
2022-11-05T06:07:11.305Z,98803.59
2022-11-05T06:09:41.073Z,98814.72
2022-11-05T06:12:08.612Z,98810.31
2022-11-05T06:14:36.095Z,98820.81
2022-11-05T06:17:04.009Z,98820.81
2022-11-05T06:19:31.651Z,98825.34
2022-11-05T06:21:59.371Z,98828.72
2022-11-05T06:24:29.167Z,98828.72
2022-11-05T06:26:56.412Z,98829.56
2022-11-05T06:29:24.255Z,98839.84
2022-11-05T06:31:52.018Z,98845.25
2022-11-05T06:34:19.432Z,98848.56
2022-11-05T06:36:49.210Z,98855.44
2022-11-05T06:39:17.167Z,98855.59
2022-11-05T06:42:11.845Z,98861.28
2022-11-05T06:44:32.272Z,98863.94
2022-11-05T06:47:00.329Z,98862.44
2022-11-05T06:49:27.514Z,98872.47
2022-11-05T06:51:54.796Z,98871.69
2022-11-05T06:54:22.631Z,98874.28
2022-11-05T06:56:50.096Z,98888.59
2022-11-05T06:59:17.844Z,98887.06
2022-11-05T07:01:45.228Z,98889.97
2022-11-05T07:04:13.064Z,98895.59
2022-11-05T07:06:40.455Z,98901.22
2022-11-05T07:09:07.776Z,98896.53
2022-11-05T07:11:34.943Z,98899.25
2022-11-05T07:14:02.543Z,98912.25
2022-11-05T07:16:34.595Z,98911.59
2022-11-05T07:19:03.594Z,98915.50
2022-11-05T07:21:31.165Z,98922.84
2022-11-05T07:23:59.065Z,98925.97
2022-11-05T07:26:31.843Z,98932.16
2022-11-05T07:29:02.200Z,98938.06
2022-11-05T07:31:30.060Z,98944.22
2022-11-05T07:34:09.421Z,98942.66
2022-11-05T07:36:39.528Z,98952.50
2022-11-05T07:42:29.251Z,98953.19
2022-11-05T07:44:56.623Z,98958.31
2022-11-05T07:47:27.896Z,98960.03
2022-11-05T07:49:55.144Z,98961.81
2022-11-05T07:52:22.322Z,98964.06
2022-11-05T07:54:49.983Z,98965.44
2022-11-05T07:57:17.501Z,98970.72
2022-11-05T07:59:44.630Z,98966.44
2022-11-05T08:02:11.962Z,98974.63
2022-11-05T08:04:40.340Z,98974.22
2022-11-05T08:07:07.560Z,98986.81
2022-11-05T08:09:34.937Z,98982.28
2022-11-05T08:12:03.379Z,98984.00
2022-11-05T08:14:31.034Z,98980.88
2022-11-05T08:16:59.129Z,98985.19
2022-11-05T08:19:26.869Z,98996.66
2022-11-05T08:21:54.521Z,98994.16
2022-11-05T08:24:22.012Z,98999.50
2022-11-05T08:26:49.262Z,98992.16
2022-11-05T08:29:17.029Z,98998.09
2022-11-05T08:31:44.669Z,99000.84
2022-11-05T08:34:11.975Z,99006.59
2022-11-05T08:36:41.960Z,99000.66
2022-11-05T08:39:14.283Z,99005.00
2022-11-05T08:41:45.579Z,99020.59
2022-11-05T08:44:13.210Z,99014.25
2022-11-05T08:46:41.841Z,99016.97
2022-11-05T08:49:09.408Z,99016.88
2022-11-05T08:51:36.759Z,99021.66
2022-11-05T08:54:05.051Z,99022.47
2022-11-05T08:56:32.646Z,99032.25
2022-11-05T08:59:00.939Z,99029.56
2022-11-05T09:01:28.432Z,99045.72
2022-11-05T09:03:55.833Z,99046.03
2022-11-05T09:06:23.274Z,99046.56
2022-11-05T09:08:50.949Z,99046.75
2022-11-05T09:11:18.493Z,99043.47
2022-11-05T09:13:46.155Z,99047.00
2022-11-05T09:16:24.207Z,99046.53
2022-11-05T09:18:52.438Z,99044.47
2022-11-05T09:21:20.248Z,99054.84
2022-11-05T09:23:48.646Z,99052.75
2022-11-05T09:26:15.882Z,99053.59
2022-11-05T09:28:43.557Z,99059.91
2022-11-05T09:31:12.029Z,99062.16
2022-11-05T09:33:41.628Z,99067.19
2022-11-05T09:36:09.617Z,99076.41
2022-11-05T09:38:37.182Z,99068.38
2022-11-05T09:41:37.475Z,99068.28
2022-11-05T09:44:20.758Z,99075.50
2022-11-05T09:46:54.896Z,99076.63
2022-11-05T09:49:50.308Z,99076.72
2022-11-05T09:52:29.985Z,99068.16
2022-11-05T09:54:58.398Z,99076.56
2022-11-05T09:57:37.249Z,99079.41
2022-11-05T10:00:09.617Z,99080.94
2022-11-05T10:02:57.575Z,99089.22
2022-11-05T10:05:27.304Z,99093.31
2022-11-05T10:08:16.957Z,99096.81
2022-11-05T10:10:54.405Z,99096.31
2022-11-05T10:13:41.193Z,99103.25
2022-11-05T10:16:37.978Z,99106.41
2022-11-05T10:19:27.193Z,99106.78
2022-11-05T10:22:16.612Z,99113.09
2022-11-05T10:24:50.166Z,99111.47
2022-11-05T10:27:27.229Z,99116.50
2022-11-05T10:29:55.672Z,99115.34
2022-11-05T10:32:35.064Z,99115.06
2022-11-05T10:35:08.220Z,99127.31
2022-11-05T10:37:40.851Z,99120.59
2022-11-05T10:40:34.425Z,99127.31
2022-11-05T10:43:14.266Z,99122.56
2022-11-05T10:46:08.903Z,99121.13
2022-11-05T10:48:56.900Z,99129.88
2022-11-05T10:51:24.581Z,99131.41
2022-11-05T10:54:02.267Z,99135.41
2022-11-05T10:56:39.521Z,99129.19
2022-11-05T10:59:29.809Z,99132.78
2022-11-05T11:02:25.907Z,99141.25
2022-11-05T11:04:57.941Z,99131.47
2022-11-05T11:07:27.187Z,99134.47
2022-11-05T11:09:54.628Z,99139.63
2022-11-05T11:12:41.010Z,99136.34
2022-11-05T11:15:24.024Z,99140.66
2022-11-05T11:17:51.430Z,99140.59
2022-11-05T11:20:33.250Z,99145.13
2022-11-05T11:23:16.985Z,99138.94
2022-11-05T11:26:01.789Z,99145.31
2022-11-05T11:28:56.445Z,99150.81
2022-11-05T11:31:32.576Z,99143.16
2022-11-05T11:34:09.301Z,99151.00
2022-11-05T11:36:50.785Z,99148.28
2022-11-05T11:39:28.924Z,99146.66
2022-11-05T11:42:14.214Z,99144.06
2022-11-05T11:44:47.038Z,99152.66
2022-11-05T11:47:19.869Z,99148.19
2022-11-05T11:49:54.893Z,99152.13
2022-11-05T11:52:34.616Z,99151.84
2022-11-05T11:55:22.570Z,99149.88
2022-11-05T11:58:06.105Z,99150.72
2022-11-05T12:00:48.749Z,99152.63
2022-11-05T12:03:54.242Z,99156.19
2022-11-05T12:06:30.354Z,99158.13
2022-11-05T12:09:57.063Z,99151.00
2022-11-05T12:13:02.517Z,99148.47
2022-11-05T12:16:18.228Z,99140.63
2022-11-05T12:18:53.897Z,99145.66
2022-11-05T12:21:52.073Z,99141.75
2022-11-05T12:25:02.374Z,99129.13
2022-11-05T12:28:17.806Z,99141.06
2022-11-05T12:31:11.104Z,99141.03
2022-11-05T12:34:30.656Z,99132.25
2022-11-05T12:37:52.065Z,99127.13
2022-11-05T12:40:44.403Z,99141.59
2022-11-05T12:43:42.496Z,99141.75
2022-11-05T12:46:41.256Z,99140.88
2022-11-05T12:50:01.082Z,99137.25
2022-11-05T12:53:00.640Z,99144.53
2022-11-05T12:55:45.474Z,99146.22
2022-11-05T12:58:30.709Z,99150.41
2022-11-05T13:01:23.471Z,99147.91
2022-11-05T13:04:14.217Z,99140.34
2022-11-05T13:06:50.091Z,99139.50
2022-11-05T13:09:36.736Z,99145.94
2022-11-05T13:12:17.311Z,99142.03
2022-11-05T13:14:55.135Z,99134.44
2022-11-05T13:17:38.861Z,99135.31
2022-11-05T13:20:22.185Z,99141.72
2022-11-05T13:23:01.159Z,99149.03
2022-11-05T13:25:35.964Z,99153.81
2022-11-05T13:28:34.494Z,99151.00
2022-11-05T13:31:11.237Z,99150.44
2022-11-05T13:33:47.479Z,99154.94
2022-11-05T13:36:44.753Z,99143.16
2022-11-05T13:39:29.269Z,99151.00
2022-11-05T13:42:24.019Z,99142.56
2022-11-05T13:45:32.000Z,99146.53
2022-11-05T13:48:28.077Z,99148.19
2022-11-05T13:51:39.669Z,99158.22
2022-11-05T13:54:43.887Z,99157.06
2022-11-05T13:57:54.733Z,99154.16
2022-11-05T14:00:27.233Z,99155.88
2022-11-05T14:03:07.439Z,99152.28
2022-11-05T14:05:41.065Z,99156.25
2022-11-05T14:08:20.611Z,99161.44
2022-11-05T14:11:07.634Z,99158.53
2022-11-05T14:13:42.784Z,99159.22
2022-11-05T14:16:23.320Z,99164.16
2022-11-05T14:19:18.754Z,99168.34
2022-11-05T14:21:59.745Z,99158.47
2022-11-05T14:24:43.011Z,99163.88
2022-11-05T14:27:12.941Z,99159.34
2022-11-05T14:29:47.884Z,99164.06
2022-11-05T14:32:18.612Z,99164.81
2022-11-05T14:35:01.800Z,99163.06
2022-11-05T14:37:40.840Z,99167.50
2022-11-05T14:40:39.127Z,99170.19
2022-11-05T14:43:22.281Z,99173.94
2022-11-05T14:46:08.351Z,99174.81
2022-11-05T14:48:50.622Z,99176.41
2022-11-05T14:51:28.555Z,99191.94
2022-11-05T14:54:21.714Z,99183.16
2022-11-05T14:56:57.998Z,99191.09
2022-11-05T14:59:25.095Z,99189.53
2022-11-05T15:02:18.290Z,99191.78
2022-11-05T15:04:47.351Z,99191.56
2022-11-05T15:07:24.463Z,99191.72
2022-11-05T15:10:18.436Z,99193.75
2022-11-05T15:12:54.800Z,99197.19
2022-11-05T15:15:28.529Z,99198.31
2022-11-05T15:18:29.416Z,99190.19
2022-11-05T15:21:02.612Z,99197.44
2022-11-05T15:23:43.109Z,99196.81
2022-11-05T15:26:39.548Z,99203.97
2022-11-05T15:29:21.626Z,99197.84
2022-11-05T15:31:51.222Z,99202.59
2022-11-05T15:34:35.760Z,99206.16
2022-11-05T15:37:22.767Z,99208.44
2022-11-05T15:39:54.970Z,99202.63
2022-11-05T15:42:27.396Z,99209.38
2022-11-05T15:44:58.910Z,99207.84
2022-11-05T15:47:36.898Z,99206.84
2022-11-05T15:50:15.579Z,99205.50
2022-11-05T15:52:56.709Z,99208.72
2022-11-05T15:55:32.944Z,99207.88
2022-11-05T15:58:06.837Z,99202.94
2022-11-05T16:00:37.056Z,99216.94
2022-11-05T16:03:24.542Z,99219.22
2022-11-05T16:05:53.446Z,99219.53
2022-11-05T16:08:28.092Z,99227.66
2022-11-05T16:10:59.879Z,99214.22
2022-11-05T16:13:40.134Z,99212.16
2022-11-05T16:16:13.791Z,99221.53
2022-11-05T16:18:45.485Z,99216.03
2022-11-05T16:21:18.786Z,99220.59
2022-11-05T16:24:00.461Z,99236.44
2022-11-05T16:29:41.354Z,99234.50
2022-11-05T16:32:31.828Z,99233.22
2022-11-05T16:35:04.826Z,99225.22
2022-11-05T16:37:41.125Z,99229.94
2022-11-05T16:40:25.885Z,99231.47
2022-11-05T16:42:55.117Z,99241.03
2022-11-05T16:45:25.177Z,99249.53
2022-11-05T16:47:52.587Z,99252.56
2022-11-05T16:50:32.663Z,99255.97
2022-11-05T16:52:59.989Z,99262.72
2022-11-05T16:55:27.400Z,99263.88
2022-11-05T16:57:56.084Z,99257.66
2022-11-05T17:00:25.728Z,99260.75
2022-11-05T17:03:04.402Z,99251.28
2022-11-05T17:05:43.052Z,99255.22
2022-11-05T17:08:12.573Z,99262.72
2022-11-05T17:10:40.853Z,99265.66
2022-11-05T17:13:20.207Z,99267.75
2022-11-05T17:15:53.415Z,99265.78
2022-11-05T17:18:49.415Z,99268.44
2022-11-05T17:21:28.425Z,99257.88
2022-11-05T17:23:57.256Z,99262.09
2022-11-05T17:26:30.987Z,99258.56
2022-11-05T17:29:03.754Z,99256.63
2022-11-05T17:31:59.550Z,99264.59
2022-11-05T17:35:07.211Z,99267.97
2022-11-05T17:38:24.110Z,99268.66
2022-11-05T17:44:22.772Z,99270.50
2022-11-05T17:47:58.333Z,99266.19
2022-11-05T17:50:31.358Z,99270.78
2022-11-05T17:53:56.417Z,99278.97
2022-11-05T17:56:51.288Z,99282.16
2022-11-05T18:07:22.683Z,99301.44
2022-11-05T18:09:59.371Z,99299.44
2022-11-05T18:12:36.301Z,99301.44
2022-11-05T18:15:40.352Z,99314.41
2022-11-05T18:18:24.296Z,99319.44
2022-11-05T18:24:09.678Z,99316.16
2022-11-05T18:27:06.995Z,99328.94
2022-11-05T18:29:47.797Z,99325.19
2022-11-05T18:32:40.525Z,99330.25
2022-11-05T18:35:52.645Z,99333.50
2022-11-05T18:38:22.904Z,99315.53
2022-11-05T18:40:53.702Z,99319.69
2022-11-05T18:43:22.016Z,99318.63
2022-11-05T18:45:58.956Z,99320.09
2022-11-05T18:48:27.852Z,99320.09
2022-11-05T18:51:19.302Z,99321.75
2022-11-05T18:53:49.471Z,99324.34
2022-11-05T18:56:25.039Z,99317.09
2022-11-05T18:59:29.903Z,99321.38
2022-11-05T19:01:57.605Z,99321.91
2022-11-05T19:05:14.466Z,99313.84
2022-11-05T19:07:49.219Z,99322.72
2022-11-05T19:10:17.695Z,99313.44
2022-11-05T19:12:49.504Z,99310.44
2022-11-05T19:15:18.862Z,99313.84
2022-11-05T19:17:47.162Z,99309.44
2022-11-05T19:20:16.078Z,99313.38
2022-11-05T19:22:46.967Z,99314.41
2022-11-05T19:25:33.213Z,99310.63
2022-11-05T19:28:05.018Z,99313.38
2022-11-05T19:30:40.287Z,99309.59
2022-11-05T19:33:10.957Z,99314.09
2022-11-05T19:35:54.956Z,99311.34
2022-11-05T19:38:28.802Z,99310.13
2022-11-05T19:41:07.073Z,99314.09
2022-11-05T19:44:02.078Z,99315.84
2022-11-05T19:46:40.209Z,99319.28
2022-11-05T19:49:21.155Z,99325.16
2022-11-05T19:52:01.249Z,99324.88
2022-11-05T19:54:34.361Z,99328.78
2022-11-05T19:57:03.218Z,99325.97
2022-11-05T19:59:35.767Z,99326.00
2022-11-05T20:02:13.303Z,99331.34
2022-11-05T20:04:50.422Z,99326.69
2022-11-05T20:07:21.579Z,99319.06
2022-11-05T20:09:50.299Z,99335.38
2022-11-05T20:12:22.153Z,99331.06
2022-11-05T20:14:50.528Z,99326.25
2022-11-05T20:17:23.819Z,99337.78
2022-11-05T20:19:52.296Z,99346.69
2022-11-05T20:22:21.095Z,99344.16
2022-11-05T20:24:49.407Z,99350.31
2022-11-05T20:27:17.868Z,99348.38
2022-11-05T20:29:51.108Z,99340.97
2022-11-05T20:32:19.773Z,99348.81
2022-11-05T20:34:59.892Z,99351.81
2022-11-05T20:37:36.715Z,99354.31
2022-11-05T20:40:10.109Z,99352.84
2022-11-05T20:42:39.069Z,99350.91
2022-11-05T20:45:17.264Z,99366.00
2022-11-05T20:47:57.704Z,99360.50
2022-11-05T20:50:30.443Z,99367.09
2022-11-05T20:53:02.043Z,99364.91
2022-11-05T20:55:29.981Z,99366.63
2022-11-05T20:57:57.868Z,99353.28
2022-11-05T21:02:12.883Z,99354.75
2022-11-05T21:03:53.938Z,99354.75
2022-11-05T21:06:23.433Z,99360.47
2022-11-05T21:08:58.176Z,99363.91
2022-11-05T21:11:28.011Z,99358.34
2022-11-05T21:14:33.321Z,99365.53
2022-11-05T21:17:52.227Z,99360.81
2022-11-05T21:20:49.180Z,99365.63
2022-11-05T21:23:50.535Z,99357.59
2022-11-05T21:27:02.643Z,99363.00
2022-11-05T21:29:53.954Z,99358.47
2022-11-05T21:33:10.570Z,99354.84
2022-11-05T21:36:19.534Z,99352.41
2022-11-05T21:39:14.504Z,99356.34
2022-11-05T21:42:25.474Z,99366.63
2022-11-05T21:45:18.825Z,99358.97
2022-11-05T21:47:46.573Z,99363.78
2022-11-05T21:50:18.271Z,99349.19
2022-11-05T21:53:20.834Z,99352.19
2022-11-05T21:56:07.207Z,99350.31
2022-11-05T21:58:56.247Z,99348.81
2022-11-05T22:01:23.580Z,99350.50
2022-11-05T22:03:50.899Z,99348.59
2022-11-05T22:06:20.784Z,99350.94
2022-11-05T22:08:47.929Z,99345.00
2022-11-05T22:11:15.217Z,99349.25
2022-11-05T22:13:42.486Z,99351.59
2022-11-05T22:16:35.675Z,99352.22
2022-11-05T22:19:03.588Z,99352.84
2022-11-05T22:21:30.777Z,99352.22
2022-11-05T22:23:58.048Z,99351.38
2022-11-05T22:26:25.383Z,99355.19
2022-11-05T22:28:56.470Z,99349.22
2022-11-05T22:31:24.729Z,99349.88
2022-11-05T22:33:53.232Z,99344.13
2022-11-05T22:36:20.591Z,99346.25
2022-11-05T22:38:47.825Z,99351.34
2022-11-05T22:41:20.432Z,99347.53
2022-11-05T22:43:48.910Z,99351.34
2022-11-05T22:46:26.338Z,99344.97
2022-11-05T22:48:54.514Z,99337.53
2022-11-05T22:51:28.465Z,99340.28
2022-11-05T22:53:56.739Z,99336.06
2022-11-05T22:56:28.751Z,99337.75
2022-11-05T22:58:56.683Z,99340.53
2022-11-05T23:01:25.004Z,99341.78
2022-11-05T23:03:56.956Z,99336.22
2022-11-05T23:06:51.187Z,99334.13
2022-11-05T23:09:45.683Z,99334.72
2022-11-05T23:12:29.112Z,99330.94
2022-11-05T23:14:59.962Z,99314.13
2022-11-05T23:17:49.010Z,99333.03
2022-11-05T23:20:42.226Z,99315.59
2022-11-05T23:23:31.615Z,99320.22
2022-11-05T23:26:24.787Z,99312.09
2022-11-05T23:28:51.998Z,99323.03
2022-11-05T23:31:38.024Z,99320.91
2022-11-05T23:34:05.153Z,99324.06
2022-11-05T23:36:51.191Z,99322.41
2022-11-05T23:39:18.442Z,99318.53
2022-11-05T23:42:04.539Z,99318.91
2022-11-05T23:44:50.581Z,99319.91
2022-11-05T23:47:36.535Z,99317.34
2022-11-05T23:50:04.266Z,99309.88
2022-11-05T23:52:31.992Z,99314.16
2022-11-05T23:54:59.911Z,99314.34
2022-11-05T23:57:27.423Z,99300.75
2022-11-05T23:59:54.684Z,99301.78
